sensor_id;sensor_type;location;lat;lon;timestamp;P1;durP1;ratioP1;P2;durP2;ratioP2
5416;SDS011;2731;50.754;12.990;2023-08-01T00:00:36;5.80;;;2.50;;
5416;SDS011;2731;50.754;12.990;2023-08-01T00:03:23;3.88;;;2.45;;
5416;SDS011;2731;50.754;12.990;2023-08-01T00:06:10;6.03;;;2.75;;
5416;SDS011;2731;50.754;12.990;2023-08-01T00:08:58;4.60;;;2.75;;
5416;SDS011;2731;50.754;12.990;2023-08-01T00:11:43;3.30;;;2.40;;
5416;SDS011;2731;50.754;12.990;2023-08-01T00:14:27;3.50;;;2.67;;
5416;SDS011;2731;50.754;12.990;2023-08-01T00:17:15;5.00;;;2.78;;
5416;SDS011;2731;50.754;12.990;2023-08-01T00:20:02;5.95;;;3.10;;
5416;SDS011;2731;50.754;12.990;2023-08-01T00:22:49;4.38;;;3.00;;
5416;SDS011;2731;50.754;12.990;2023-08-01T00:25:15;5.65;;;3.03;;
5416;SDS011;2731;50.754;12.990;2023-08-01T00:28:02;4.35;;;2.70;;
5416;SDS011;2731;50.754;12.990;2023-08-01T00:30:30;6.78;;;3.35;;
5416;SDS011;2731;50.754;12.990;2023-08-01T00:33:17;5.85;;;3.20;;
5416;SDS011;2731;50.754;12.990;2023-08-01T00:35:43;5.05;;;2.80;;
5416;SDS011;2731;50.754;12.990;2023-08-01T00:38:35;6.22;;;3.28;;
5416;SDS011;2731;50.754;12.990;2023-08-01T00:41:04;6.15;;;3.30;;
5416;SDS011;2731;50.754;12.990;2023-08-01T00:43:31;5.35;;;3.05;;
5416;SDS011;2731;50.754;12.990;2023-08-01T00:45:59;5.03;;;3.35;;
5416;SDS011;2731;50.754;12.990;2023-08-01T00:48:28;4.93;;;3.00;;
5416;SDS011;2731;50.754;12.990;2023-08-01T00:50:57;4.93;;;3.28;;
5416;SDS011;2731;50.754;12.990;2023-08-01T00:53:24;4.13;;;2.53;;
5416;SDS011;2731;50.754;12.990;2023-08-01T00:55:52;5.13;;;3.42;;
5416;SDS011;2731;50.754;12.990;2023-08-01T00:58:18;6.80;;;3.08;;
5416;SDS011;2731;50.754;12.990;2023-08-01T01:00:51;6.50;;;3.67;;
5416;SDS011;2731;50.754;12.990;2023-08-01T01:03:22;4.55;;;3.22;;
5416;SDS011;2731;50.754;12.990;2023-08-01T01:08:37;6.38;;;3.40;;
5416;SDS011;2731;50.754;12.990;2023-08-01T01:11:09;9.55;;;3.63;;
5416;SDS011;2731;50.754;12.990;2023-08-01T01:13:38;7.93;;;3.83;;
5416;SDS011;2731;50.754;12.990;2023-08-01T01:16:05;6.03;;;3.15;;
5416;SDS011;2731;50.754;12.990;2023-08-01T01:18:34;4.05;;;2.78;;
5416;SDS011;2731;50.754;12.990;2023-08-01T01:21:23;7.15;;;3.15;;
5416;SDS011;2731;50.754;12.990;2023-08-01T01:24:10;4.22;;;3.38;;
5416;SDS011;2731;50.754;12.990;2023-08-01T01:26:40;6.55;;;2.67;;
5416;SDS011;2731;50.754;12.990;2023-08-01T01:29:11;5.27;;;2.90;;
5416;SDS011;2731;50.754;12.990;2023-08-01T01:31:41;4.88;;;3.03;;
5416;SDS011;2731;50.754;12.990;2023-08-01T01:34:10;4.38;;;2.85;;
5416;SDS011;2731;50.754;12.990;2023-08-01T01:36:37;5.47;;;3.58;;
5416;SDS011;2731;50.754;12.990;2023-08-01T01:39:05;4.70;;;2.90;;
5416;SDS011;2731;50.754;12.990;2023-08-01T01:41:34;5.13;;;2.60;;
5416;SDS011;2731;50.754;12.990;2023-08-01T01:44:03;4.07;;;2.95;;
5416;SDS011;2731;50.754;12.990;2023-08-01T01:46:30;5.10;;;2.88;;
5416;SDS011;2731;50.754;12.990;2023-08-01T01:48:58;6.05;;;2.95;;
5416;SDS011;2731;50.754;12.990;2023-08-01T01:51:29;3.70;;;2.20;;
5416;SDS011;2731;50.754;12.990;2023-08-01T01:53:58;4.30;;;2.58;;
5416;SDS011;2731;50.754;12.990;2023-08-01T01:56:44;5.78;;;2.78;;
5416;SDS011;2731;50.754;12.990;2023-08-01T01:59:30;3.35;;;2.45;;
5416;SDS011;2731;50.754;12.990;2023-08-01T02:01:59;4.18;;;2.60;;
5416;SDS011;2731;50.754;12.990;2023-08-01T02:04:49;4.85;;;2.55;;
5416;SDS011;2731;50.754;12.990;2023-08-01T02:07:34;5.47;;;2.40;;
5416;SDS011;2731;50.754;12.990;2023-08-01T02:10:20;6.50;;;3.13;;
5416;SDS011;2731;50.754;12.990;2023-08-01T02:13:06;5.15;;;2.55;;
5416;SDS011;2731;50.754;12.990;2023-08-01T02:15:54;3.83;;;2.30;;
5416;SDS011;2731;50.754;12.990;2023-08-01T02:18:40;3.13;;;2.35;;
5416;SDS011;2731;50.754;12.990;2023-08-01T02:21:11;2.85;;;2.08;;
5416;SDS011;2731;50.754;12.990;2023-08-01T02:24:00;3.85;;;2.17;;
5416;SDS011;2731;50.754;12.990;2023-08-01T02:26:51;5.70;;;2.90;;
5416;SDS011;2731;50.754;12.990;2023-08-01T02:29:38;3.95;;;1.85;;
5416;SDS011;2731;50.754;12.990;2023-08-01T02:34:57;3.42;;;2.30;;
5416;SDS011;2731;50.754;12.990;2023-08-01T02:37:25;3.55;;;2.30;;
5416;SDS011;2731;50.754;12.990;2023-08-01T02:39:54;3.10;;;1.70;;
5416;SDS011;2731;50.754;12.990;2023-08-01T02:42:22;3.13;;;2.20;;
5416;SDS011;2731;50.754;12.990;2023-08-01T02:44:51;3.05;;;1.90;;
5416;SDS011;2731;50.754;12.990;2023-08-01T02:47:20;4.18;;;2.35;;
5416;SDS011;2731;50.754;12.990;2023-08-01T02:49:48;2.22;;;1.70;;
5416;SDS011;2731;50.754;12.990;2023-08-01T02:52:14;4.20;;;1.92;;
5416;SDS011;2731;50.754;12.990;2023-08-01T02:54:41;2.35;;;1.63;;
5416;SDS011;2731;50.754;12.990;2023-08-01T02:57:09;3.72;;;1.95;;
5416;SDS011;2731;50.754;12.990;2023-08-01T02:59:36;3.45;;;1.58;;
5416;SDS011;2731;50.754;12.990;2023-08-01T03:02:05;1.52;;;1.38;;
5416;SDS011;2731;50.754;12.990;2023-08-01T03:04:34;3.17;;;1.67;;
5416;SDS011;2731;50.754;12.990;2023-08-01T03:07:02;4.25;;;2.40;;
5416;SDS011;2731;50.754;12.990;2023-08-01T03:09:32;2.03;;;1.70;;
5416;SDS011;2731;50.754;12.990;2023-08-01T03:11:59;2.25;;;1.40;;
5416;SDS011;2731;50.754;12.990;2023-08-01T03:14:45;1.80;;;1.40;;
5416;SDS011;2731;50.754;12.990;2023-08-01T03:17:12;4.95;;;1.73;;
5416;SDS011;2731;50.754;12.990;2023-08-01T03:19:40;1.38;;;1.10;;
5416;SDS011;2731;50.754;12.990;2023-08-01T03:22:08;1.48;;;1.30;;
5416;SDS011;2731;50.754;12.990;2023-08-01T03:24:37;3.15;;;1.50;;
5416;SDS011;2731;50.754;12.990;2023-08-01T03:27:03;1.90;;;1.50;;
5416;SDS011;2731;50.754;12.990;2023-08-01T03:29:32;1.85;;;1.27;;
5416;SDS011;2731;50.754;12.990;2023-08-01T03:31:59;2.60;;;1.30;;
5416;SDS011;2731;50.754;12.990;2023-08-01T03:34:28;1.88;;;1.17;;
5416;SDS011;2731;50.754;12.990;2023-08-01T03:36:56;2.88;;;1.20;;
5416;SDS011;2731;50.754;12.990;2023-08-01T03:39:24;2.28;;;1.30;;
5416;SDS011;2731;50.754;12.990;2023-08-01T03:41:53;1.73;;;1.35;;
5416;SDS011;2731;50.754;12.990;2023-08-01T03:44:21;1.60;;;1.10;;
5416;SDS011;2731;50.754;12.990;2023-08-01T03:46:49;2.38;;;1.20;;
5416;SDS011;2731;50.754;12.990;2023-08-01T03:49:16;2.30;;;1.20;;
5416;SDS011;2731;50.754;12.990;2023-08-01T03:51:46;2.45;;;1.10;;
5416;SDS011;2731;50.754;12.990;2023-08-01T03:54:13;3.20;;;1.10;;
5416;SDS011;2731;50.754;12.990;2023-08-01T03:56:41;2.45;;;1.33;;
5416;SDS011;2731;50.754;12.990;2023-08-01T03:59:12;1.50;;;1.08;;
5416;SDS011;2731;50.754;12.990;2023-08-01T04:01:41;3.17;;;1.20;;
5416;SDS011;2731;50.754;12.990;2023-08-01T04:04:08;1.50;;;0.88;;
5416;SDS011;2731;50.754;12.990;2023-08-01T04:06:38;1.67;;;1.00;;
5416;SDS011;2731;50.754;12.990;2023-08-01T04:09:06;0.95;;;0.75;;
5416;SDS011;2731;50.754;12.990;2023-08-01T04:11:35;1.20;;;0.60;;
5416;SDS011;2731;50.754;12.990;2023-08-01T04:14:02;1.42;;;0.70;;
5416;SDS011;2731;50.754;12.990;2023-08-01T04:16:29;0.40;;;0.40;;
5416;SDS011;2731;50.754;12.990;2023-08-01T04:18:56;1.13;;;0.60;;
5416;SDS011;2731;50.754;12.990;2023-08-01T04:21:23;1.13;;;0.70;;
5416;SDS011;2731;50.754;12.990;2023-08-01T04:23:52;0.70;;;0.70;;
5416;SDS011;2731;50.754;12.990;2023-08-01T04:26:21;1.67;;;0.82;;
5416;SDS011;2731;50.754;12.990;2023-08-01T04:28:47;0.77;;;0.50;;
5416;SDS011;2731;50.754;12.990;2023-08-01T04:31:14;1.17;;;0.70;;
5416;SDS011;2731;50.754;12.990;2023-08-01T04:33:43;1.73;;;0.60;;
5416;SDS011;2731;50.754;12.990;2023-08-01T04:36:12;0.90;;;0.60;;
5416;SDS011;2731;50.754;12.990;2023-08-01T04:38:42;0.45;;;0.38;;
5416;SDS011;2731;50.754;12.990;2023-08-01T04:41:11;0.60;;;0.55;;
5416;SDS011;2731;50.754;12.990;2023-08-01T04:43:37;0.77;;;0.50;;
5416;SDS011;2731;50.754;12.990;2023-08-01T04:46:06;0.85;;;0.60;;
5416;SDS011;2731;50.754;12.990;2023-08-01T04:48:35;0.43;;;0.43;;
5416;SDS011;2731;50.754;12.990;2023-08-01T04:51:02;0.95;;;0.85;;
5416;SDS011;2731;50.754;12.990;2023-08-01T04:53:30;0.90;;;0.50;;
5416;SDS011;2731;50.754;12.990;2023-08-01T04:55:58;0.85;;;0.60;;
5416;SDS011;2731;50.754;12.990;2023-08-01T04:58:26;0.90;;;0.57;;
5416;SDS011;2731;50.754;12.990;2023-08-01T05:00:52;1.85;;;0.60;;
5416;SDS011;2731;50.754;12.990;2023-08-01T05:03:20;0.82;;;0.50;;
5416;SDS011;2731;50.754;12.990;2023-08-01T05:05:47;2.42;;;0.60;;
5416;SDS011;2731;50.754;12.990;2023-08-01T05:08:13;1.95;;;0.88;;
5416;SDS011;2731;50.754;12.990;2023-08-01T05:10:39;1.30;;;0.63;;
5416;SDS011;2731;50.754;12.990;2023-08-01T05:13:26;0.90;;;0.73;;
5416;SDS011;2731;50.754;12.990;2023-08-01T05:15:55;0.73;;;0.65;;
5416;SDS011;2731;50.754;12.990;2023-08-01T05:18:42;1.05;;;0.80;;
5416;SDS011;2731;50.754;12.990;2023-08-01T05:21:10;1.90;;;1.10;;
5416;SDS011;2731;50.754;12.990;2023-08-01T05:23:57;1.80;;;1.02;;
5416;SDS011;2731;50.754;12.990;2023-08-01T05:26:25;2.47;;;1.50;;
5416;SDS011;2731;50.754;12.990;2023-08-01T05:28:52;3.85;;;1.75;;
5416;SDS011;2731;50.754;12.990;2023-08-01T05:31:20;1.52;;;1.23;;
5416;SDS011;2731;50.754;12.990;2023-08-01T05:33:47;2.78;;;1.33;;
5416;SDS011;2731;50.754;12.990;2023-08-01T05:36:15;1.80;;;1.08;;
5416;SDS011;2731;50.754;12.990;2023-08-01T05:38:42;1.80;;;1.35;;
5416;SDS011;2731;50.754;12.990;2023-08-01T05:41:12;2.60;;;1.40;;
5416;SDS011;2731;50.754;12.990;2023-08-01T05:43:42;3.13;;;1.17;;
5416;SDS011;2731;50.754;12.990;2023-08-01T05:46:11;1.63;;;1.20;;
5416;SDS011;2731;50.754;12.990;2023-08-01T05:48:39;2.35;;;1.52;;
5416;SDS011;2731;50.754;12.990;2023-08-01T05:51:07;2.42;;;1.38;;
5416;SDS011;2731;50.754;12.990;2023-08-01T05:53:36;1.55;;;1.17;;
5416;SDS011;2731;50.754;12.990;2023-08-01T05:56:05;2.42;;;1.58;;
5416;SDS011;2731;50.754;12.990;2023-08-01T05:58:34;2.50;;;1.52;;
5416;SDS011;2731;50.754;12.990;2023-08-01T06:01:03;4.22;;;1.65;;
5416;SDS011;2731;50.754;12.990;2023-08-01T06:03:32;2.22;;;1.40;;
5416;SDS011;2731;50.754;12.990;2023-08-01T06:05:59;2.10;;;1.38;;
5416;SDS011;2731;50.754;12.990;2023-08-01T06:08:27;4.55;;;1.88;;
5416;SDS011;2731;50.754;12.990;2023-08-01T06:10:54;3.50;;;1.67;;
5416;SDS011;2731;50.754;12.990;2023-08-01T06:13:23;2.30;;;1.63;;
5416;SDS011;2731;50.754;12.990;2023-08-01T06:15:54;2.17;;;1.70;;
5416;SDS011;2731;50.754;12.990;2023-08-01T06:18:41;2.92;;;2.13;;
5416;SDS011;2731;50.754;12.990;2023-08-01T06:21:08;2.38;;;1.58;;
5416;SDS011;2731;50.754;12.990;2023-08-01T06:23:55;2.63;;;1.60;;
5416;SDS011;2731;50.754;12.990;2023-08-01T06:26:22;2.80;;;1.60;;
5416;SDS011;2731;50.754;12.990;2023-08-01T06:29:08;2.30;;;1.48;;
5416;SDS011;2731;50.754;12.990;2023-08-01T06:31:55;1.85;;;1.45;;
5416;SDS011;2731;50.754;12.990;2023-08-01T06:34:43;1.90;;;1.42;;
5416;SDS011;2731;50.754;12.990;2023-08-01T06:37:28;1.63;;;1.48;;
5416;SDS011;2731;50.754;12.990;2023-08-01T06:40:15;3.55;;;1.70;;
5416;SDS011;2731;50.754;12.990;2023-08-01T06:43:02;2.25;;;1.65;;
5416;SDS011;2731;50.754;12.990;2023-08-01T06:45:49;1.75;;;1.55;;
5416;SDS011;2731;50.754;12.990;2023-08-01T06:48:34;2.67;;;1.10;;
5416;SDS011;2731;50.754;12.990;2023-08-01T06:51:03;1.75;;;1.48;;
5416;SDS011;2731;50.754;12.990;2023-08-01T06:53:50;2.63;;;1.77;;
5416;SDS011;2731;50.754;12.990;2023-08-01T06:56:17;2.40;;;1.52;;
5416;SDS011;2731;50.754;12.990;2023-08-01T06:59:03;2.40;;;1.30;;
5416;SDS011;2731;50.754;12.990;2023-08-01T07:01:30;3.05;;;1.63;;
5416;SDS011;2731;50.754;12.990;2023-08-01T07:06:30;1.55;;;1.20;;
5416;SDS011;2731;50.754;12.990;2023-08-01T07:09:02;2.15;;;1.55;;
5416;SDS011;2731;50.754;12.990;2023-08-01T07:11:29;1.88;;;1.40;;
5416;SDS011;2731;50.754;12.990;2023-08-01T07:14:14;1.73;;;1.30;;
5416;SDS011;2731;50.754;12.990;2023-08-01T07:17:01;2.28;;;1.20;;
5416;SDS011;2731;50.754;12.990;2023-08-01T07:19:41;2.47;;;1.00;;
5416;SDS011;2731;50.754;12.990;2023-08-01T07:22:09;1.20;;;1.10;;
5416;SDS011;2731;50.754;12.990;2023-08-01T07:24:37;2.35;;;1.10;;
5416;SDS011;2731;50.754;12.990;2023-08-01T07:27:06;2.35;;;1.00;;
5416;SDS011;2731;50.754;12.990;2023-08-01T07:29:35;1.80;;;1.00;;
5416;SDS011;2731;50.754;12.990;2023-08-01T07:32:04;1.27;;;0.80;;
5416;SDS011;2731;50.754;12.990;2023-08-01T07:34:30;2.20;;;1.35;;
5416;SDS011;2731;50.754;12.990;2023-08-01T07:36:56;2.33;;;1.02;;
5416;SDS011;2731;50.754;12.990;2023-08-01T07:39:25;1.73;;;1.08;;
5416;SDS011;2731;50.754;12.990;2023-08-01T07:41:52;1.58;;;1.20;;
5416;SDS011;2731;50.754;12.990;2023-08-01T07:44:20;2.92;;;1.23;;
5416;SDS011;2731;50.754;12.990;2023-08-01T07:46:49;3.95;;;1.58;;
5416;SDS011;2731;50.754;12.990;2023-08-01T07:49:18;3.35;;;1.70;;
5416;SDS011;2731;50.754;12.990;2023-08-01T07:51:45;3.03;;;1.20;;
5416;SDS011;2731;50.754;12.990;2023-08-01T07:54:12;1.75;;;1.30;;
5416;SDS011;2731;50.754;12.990;2023-08-01T07:56:41;1.50;;;1.08;;
5416;SDS011;2731;50.754;12.990;2023-08-01T07:59:10;1.90;;;1.08;;
5416;SDS011;2731;50.754;12.990;2023-08-01T08:01:39;2.28;;;1.45;;
5416;SDS011;2731;50.754;12.990;2023-08-01T08:04:06;1.88;;;1.10;;
5416;SDS011;2731;50.754;12.990;2023-08-01T08:06:35;1.42;;;1.33;;
5416;SDS011;2731;50.754;12.990;2023-08-01T08:09:03;2.13;;;1.30;;
5416;SDS011;2731;50.754;12.990;2023-08-01T08:11:33;2.22;;;1.30;;
5416;SDS011;2731;50.754;12.990;2023-08-01T08:13:59;4.65;;;1.23;;
5416;SDS011;2731;50.754;12.990;2023-08-01T08:16:28;1.50;;;1.20;;
5416;SDS011;2731;50.754;12.990;2023-08-01T08:18:56;2.33;;;1.15;;
5416;SDS011;2731;50.754;12.990;2023-08-01T08:21:22;3.17;;;1.40;;
5416;SDS011;2731;50.754;12.990;2023-08-01T08:23:51;1.52;;;1.30;;
5416;SDS011;2731;50.754;12.990;2023-08-01T08:26:17;3.65;;;1.58;;
5416;SDS011;2731;50.754;12.990;2023-08-01T08:28:46;2.33;;;1.27;;
5416;SDS011;2731;50.754;12.990;2023-08-01T08:31:12;2.22;;;1.20;;
5416;SDS011;2731;50.754;12.990;2023-08-01T08:33:39;2.92;;;1.15;;
5416;SDS011;2731;50.754;12.990;2023-08-01T08:36:08;1.23;;;1.10;;
5416;SDS011;2731;50.754;12.990;2023-08-01T08:38:38;1.75;;;1.25;;
5416;SDS011;2731;50.754;12.990;2023-08-01T08:41:11;2.40;;;1.45;;
5416;SDS011;2731;50.754;12.990;2023-08-01T08:43:39;6.03;;;3.40;;
5416;SDS011;2731;50.754;12.990;2023-08-01T08:46:07;1.85;;;1.17;;
5416;SDS011;2731;50.754;12.990;2023-08-01T08:48:35;2.10;;;1.08;;
5416;SDS011;2731;50.754;12.990;2023-08-01T08:51:02;1.02;;;0.90;;
5416;SDS011;2731;50.754;12.990;2023-08-01T08:53:31;2.35;;;1.10;;
5416;SDS011;2731;50.754;12.990;2023-08-01T08:56:03;1.25;;;0.95;;
5416;SDS011;2731;50.754;12.990;2023-08-01T08:58:31;1.80;;;1.10;;
5416;SDS011;2731;50.754;12.990;2023-08-01T09:01:00;1.38;;;0.90;;
5416;SDS011;2731;50.754;12.990;2023-08-01T09:03:27;0.80;;;0.80;;
5416;SDS011;2731;50.754;12.990;2023-08-01T09:06:28;1.48;;;1.17;;
5416;SDS011;2731;50.754;12.990;2023-08-01T09:08:51;1.00;;;0.90;;
5416;SDS011;2731;50.754;12.990;2023-08-01T09:11:25;1.40;;;1.17;;
5416;SDS011;2731;50.754;12.990;2023-08-01T09:13:53;1.80;;;0.70;;
5416;SDS011;2731;50.754;12.990;2023-08-01T09:16:21;3.20;;;1.67;;
5416;SDS011;2731;50.754;12.990;2023-08-01T09:18:51;0.80;;;0.73;;
5416;SDS011;2731;50.754;12.990;2023-08-01T09:21:20;1.15;;;0.88;;
5416;SDS011;2731;50.754;12.990;2023-08-01T09:23:51;1.23;;;0.82;;
5416;SDS011;2731;50.754;12.990;2023-08-01T09:26:18;1.45;;;0.80;;
5416;SDS011;2731;50.754;12.990;2023-08-01T09:28:58;1.02;;;0.73;;
5416;SDS011;2731;50.754;12.990;2023-08-01T09:31:32;3.08;;;1.17;;
5416;SDS011;2731;50.754;12.990;2023-08-01T09:34:03;1.08;;;0.70;;
5416;SDS011;2731;50.754;12.990;2023-08-01T09:39:02;0.88;;;0.80;;
5416;SDS011;2731;50.754;12.990;2023-08-01T09:41:29;0.75;;;0.52;;
5416;SDS011;2731;50.754;12.990;2023-08-01T09:43:56;0.70;;;0.38;;
5416;SDS011;2731;50.754;12.990;2023-08-01T09:46:24;1.38;;;0.65;;
5416;SDS011;2731;50.754;12.990;2023-08-01T09:48:52;0.93;;;0.70;;
5416;SDS011;2731;50.754;12.990;2023-08-01T09:51:20;1.27;;;0.63;;
5416;SDS011;2731;50.754;12.990;2023-08-01T09:53:49;0.50;;;0.40;;
5416;SDS011;2731;50.754;12.990;2023-08-01T09:56:20;0.95;;;0.60;;
5416;SDS011;2731;50.754;12.990;2023-08-01T09:58:48;1.48;;;1.23;;
5416;SDS011;2731;50.754;12.990;2023-08-01T10:01:17;0.35;;;0.35;;
5416;SDS011;2731;50.754;12.990;2023-08-01T10:03:48;0.77;;;0.40;;
5416;SDS011;2731;50.754;12.990;2023-08-01T10:06:28;0.68;;;0.52;;
5416;SDS011;2731;50.754;12.990;2023-08-01T10:08:59;0.52;;;0.40;;
5416;SDS011;2731;50.754;12.990;2023-08-01T10:11:26;0.80;;;0.50;;
5416;SDS011;2731;50.754;12.990;2023-08-01T10:13:55;0.38;;;0.38;;
5416;SDS011;2731;50.754;12.990;2023-08-01T10:16:24;0.70;;;0.47;;
5416;SDS011;2731;50.754;12.990;2023-08-01T10:18:52;0.85;;;0.65;;
5416;SDS011;2731;50.754;12.990;2023-08-01T10:21:20;0.40;;;0.30;;
5416;SDS011;2731;50.754;12.990;2023-08-01T10:23:52;4.07;;;0.35;;
5416;SDS011;2731;50.754;12.990;2023-08-01T10:26:19;1.25;;;0.40;;
5416;SDS011;2731;50.754;12.990;2023-08-01T10:28:50;0.68;;;0.63;;
5416;SDS011;2731;50.754;12.990;2023-08-01T10:31:26;0.40;;;0.30;;
5416;SDS011;2731;50.754;12.990;2023-08-01T10:34:03;1.00;;;0.43;;
5416;SDS011;2731;50.754;12.990;2023-08-01T10:36:31;0.73;;;0.43;;
5416;SDS011;2731;50.754;12.990;2023-08-01T10:38:59;1.92;;;0.88;;
5416;SDS011;2731;50.754;12.990;2023-08-01T10:41:37;1.00;;;0.70;;
5416;SDS011;2731;50.754;12.990;2023-08-01T10:44:12;1.02;;;0.63;;
5416;SDS011;2731;50.754;12.990;2023-08-01T10:46:56;2.05;;;0.82;;
5416;SDS011;2731;50.754;12.990;2023-08-01T10:49:37;1.02;;;0.57;;
5416;SDS011;2731;50.754;12.990;2023-08-01T10:52:26;2.15;;;1.20;;
5416;SDS011;2731;50.754;12.990;2023-08-01T10:55:03;1.23;;;1.02;;
5416;SDS011;2731;50.754;12.990;2023-08-01T10:57:34;1.80;;;0.95;;
5416;SDS011;2731;50.754;12.990;2023-08-01T11:00:03;1.45;;;1.00;;
5416;SDS011;2731;50.754;12.990;2023-08-01T11:02:36;1.33;;;0.95;;
5416;SDS011;2731;50.754;12.990;2023-08-01T11:05:07;2.20;;;1.40;;
5416;SDS011;2731;50.754;12.990;2023-08-01T11:07:36;1.52;;;1.20;;
5416;SDS011;2731;50.754;12.990;2023-08-01T11:12:38;1.45;;;1.17;;
5416;SDS011;2731;50.754;12.990;2023-08-01T11:15:08;1.60;;;1.00;;
5416;SDS011;2731;50.754;12.990;2023-08-01T11:17:39;2.17;;;1.30;;
5416;SDS011;2731;50.754;12.990;2023-08-01T11:20:10;1.90;;;1.20;;
5416;SDS011;2731;50.754;12.990;2023-08-01T11:22:48;1.80;;;0.97;;
5416;SDS011;2731;50.754;12.990;2023-08-01T11:25:18;1.65;;;1.27;;
5416;SDS011;2731;50.754;12.990;2023-08-01T11:27:47;1.60;;;1.15;;
5416;SDS011;2731;50.754;12.990;2023-08-01T11:30:16;1.55;;;1.15;;
5416;SDS011;2731;50.754;12.990;2023-08-01T11:32:43;1.85;;;1.35;;
5416;SDS011;2731;50.754;12.990;2023-08-01T11:35:16;2.15;;;1.20;;
5416;SDS011;2731;50.754;12.990;2023-08-01T11:37:49;3.53;;;1.05;;
5416;SDS011;2731;50.754;12.990;2023-08-01T11:40:17;5.00;;;1.50;;
5416;SDS011;2731;50.754;12.990;2023-08-01T11:42:48;3.08;;;1.10;;
5416;SDS011;2731;50.754;12.990;2023-08-01T11:45:22;2.58;;;1.60;;
5416;SDS011;2731;50.754;12.990;2023-08-01T11:50:27;2.83;;;1.63;;
5416;SDS011;2731;50.754;12.990;2023-08-01T11:52:55;3.22;;;1.70;;
5416;SDS011;2731;50.754;12.990;2023-08-01T11:55:27;4.55;;;2.70;;
5416;SDS011;2731;50.754;12.990;2023-08-01T11:57:57;2.80;;;2.50;;
5416;SDS011;2731;50.754;12.990;2023-08-01T12:00:26;4.70;;;2.92;;
5416;SDS011;2731;50.754;12.990;2023-08-01T12:03:10;4.07;;;2.55;;
5416;SDS011;2731;50.754;12.990;2023-08-01T12:05:41;3.78;;;2.83;;
5416;SDS011;2731;50.754;12.990;2023-08-01T12:08:15;4.95;;;2.90;;
5416;SDS011;2731;50.754;12.990;2023-08-01T12:10:43;4.05;;;2.53;;
5416;SDS011;2731;50.754;12.990;2023-08-01T12:13:26;4.32;;;2.83;;
5416;SDS011;2731;50.754;12.990;2023-08-01T12:16:03;4.80;;;3.25;;
5416;SDS011;2731;50.754;12.990;2023-08-01T12:18:29;4.75;;;2.60;;
5416;SDS011;2731;50.754;12.990;2023-08-01T12:20:58;8.18;;;3.88;;
5416;SDS011;2731;50.754;12.990;2023-08-01T12:23:26;4.80;;;3.33;;
5416;SDS011;2731;50.754;12.990;2023-08-01T12:25:54;5.85;;;3.35;;
5416;SDS011;2731;50.754;12.990;2023-08-01T12:28:21;4.95;;;3.92;;
5416;SDS011;2731;50.754;12.990;2023-08-01T12:30:49;6.18;;;3.92;;
5416;SDS011;2731;50.754;12.990;2023-08-01T12:33:18;6.43;;;3.97;;
5416;SDS011;2731;50.754;12.990;2023-08-01T12:35:46;7.15;;;5.20;;
5416;SDS011;2731;50.754;12.990;2023-08-01T12:38:13;8.70;;;4.85;;
5416;SDS011;2731;50.754;12.990;2023-08-01T12:40:42;8.63;;;6.00;;
5416;SDS011;2731;50.754;12.990;2023-08-01T12:43:09;7.80;;;6.00;;
5416;SDS011;2731;50.754;12.990;2023-08-01T12:45:37;10.73;;;7.03;;
5416;SDS011;2731;50.754;12.990;2023-08-01T12:48:04;8.02;;;6.07;;
5416;SDS011;2731;50.754;12.990;2023-08-01T12:50:32;8.63;;;5.97;;
5416;SDS011;2731;50.754;12.990;2023-08-01T12:52:59;7.63;;;6.05;;
5416;SDS011;2731;50.754;12.990;2023-08-01T12:55:26;11.10;;;6.57;;
5416;SDS011;2731;50.754;12.990;2023-08-01T12:57:53;8.75;;;5.63;;
5416;SDS011;2731;50.754;12.990;2023-08-01T13:00:22;7.45;;;6.38;;
5416;SDS011;2731;50.754;12.990;2023-08-01T13:02:49;6.75;;;5.63;;
5416;SDS011;2731;50.754;12.990;2023-08-01T13:05:15;6.35;;;5.15;;
5416;SDS011;2731;50.754;12.990;2023-08-01T13:07:43;9.40;;;5.78;;
5416;SDS011;2731;50.754;12.990;2023-08-01T13:10:12;8.45;;;6.70;;
5416;SDS011;2731;50.754;12.990;2023-08-01T13:12:39;8.95;;;5.45;;
5416;SDS011;2731;50.754;12.990;2023-08-01T13:15:08;7.82;;;5.93;;
5416;SDS011;2731;50.754;12.990;2023-08-01T13:17:38;10.48;;;7.55;;
5416;SDS011;2731;50.754;12.990;2023-08-01T13:20:05;11.27;;;7.10;;
5416;SDS011;2731;50.754;12.990;2023-08-01T13:22:33;8.23;;;6.90;;
5416;SDS011;2731;50.754;12.990;2023-08-01T13:25:01;10.70;;;6.60;;
5416;SDS011;2731;50.754;12.990;2023-08-01T13:27:34;9.57;;;7.30;;
5416;SDS011;2731;50.754;12.990;2023-08-01T13:30:02;9.48;;;6.75;;
5416;SDS011;2731;50.754;12.990;2023-08-01T13:32:32;8.95;;;6.85;;
5416;SDS011;2731;50.754;12.990;2023-08-01T13:34:59;8.00;;;5.50;;
5416;SDS011;2731;50.754;12.990;2023-08-01T13:37:28;6.45;;;5.22;;
5416;SDS011;2731;50.754;12.990;2023-08-01T13:39:57;9.30;;;6.50;;
5416;SDS011;2731;50.754;12.990;2023-08-01T13:42:24;7.53;;;5.68;;
5416;SDS011;2731;50.754;12.990;2023-08-01T13:45:01;10.77;;;5.78;;
5416;SDS011;2731;50.754;12.990;2023-08-01T13:47:29;8.82;;;5.07;;
5416;SDS011;2731;50.754;12.990;2023-08-01T13:49:57;6.03;;;4.88;;
5416;SDS011;2731;50.754;12.990;2023-08-01T13:52:24;7.38;;;5.20;;
5416;SDS011;2731;50.754;12.990;2023-08-01T13:54:52;6.95;;;5.00;;
5416;SDS011;2731;50.754;12.990;2023-08-01T13:57:23;10.85;;;5.88;;
5416;SDS011;2731;50.754;12.990;2023-08-01T13:59:50;6.10;;;4.75;;
5416;SDS011;2731;50.754;12.990;2023-08-01T14:02:16;7.00;;;4.75;;
5416;SDS011;2731;50.754;12.990;2023-08-01T14:04:53;6.80;;;4.80;;
5416;SDS011;2731;50.754;12.990;2023-08-01T14:07:22;8.30;;;4.95;;
5416;SDS011;2731;50.754;12.990;2023-08-01T14:09:49;7.88;;;4.75;;
5416;SDS011;2731;50.754;12.990;2023-08-01T14:12:18;4.00;;;3.08;;
5416;SDS011;2731;50.754;12.990;2023-08-01T14:14:44;4.88;;;3.63;;
5416;SDS011;2731;50.754;12.990;2023-08-01T14:17:22;3.05;;;2.53;;
5416;SDS011;2731;50.754;12.990;2023-08-01T14:19:49;4.00;;;3.10;;
5416;SDS011;2731;50.754;12.990;2023-08-01T14:22:16;3.90;;;2.67;;
5416;SDS011;2731;50.754;12.990;2023-08-01T14:24:44;3.45;;;2.50;;
5416;SDS011;2731;50.754;12.990;2023-08-01T14:27:11;7.25;;;2.50;;
5416;SDS011;2731;50.754;12.990;2023-08-01T14:29:39;2.92;;;2.63;;
5416;SDS011;2731;50.754;12.990;2023-08-01T14:32:07;3.58;;;2.50;;
5416;SDS011;2731;50.754;12.990;2023-08-01T14:34:36;3.53;;;2.63;;
5416;SDS011;2731;50.754;12.990;2023-08-01T14:37:04;2.97;;;2.38;;
5416;SDS011;2731;50.754;12.990;2023-08-01T14:39:31;4.32;;;2.42;;
5416;SDS011;2731;50.754;12.990;2023-08-01T14:42:00;5.05;;;2.40;;
5416;SDS011;2731;50.754;12.990;2023-08-01T14:44:26;2.55;;;2.17;;
5416;SDS011;2731;50.754;12.990;2023-08-01T14:46:54;3.35;;;2.80;;
5416;SDS011;2731;50.754;12.990;2023-08-01T14:49:21;3.70;;;2.20;;
5416;SDS011;2731;50.754;12.990;2023-08-01T14:51:48;4.47;;;2.30;;
5416;SDS011;2731;50.754;12.990;2023-08-01T14:54:18;2.20;;;1.98;;
5416;SDS011;2731;50.754;12.990;2023-08-01T14:56:49;3.33;;;2.28;;
5416;SDS011;2731;50.754;12.990;2023-08-01T14:59:17;3.05;;;2.35;;
5416;SDS011;2731;50.754;12.990;2023-08-01T15:01:45;5.63;;;2.20;;
5416;SDS011;2731;50.754;12.990;2023-08-01T15:04:13;4.60;;;1.92;;
5416;SDS011;2731;50.754;12.990;2023-08-01T15:06:40;2.65;;;1.80;;
5416;SDS011;2731;50.754;12.990;2023-08-01T15:09:07;2.42;;;1.90;;
5416;SDS011;2731;50.754;12.990;2023-08-01T15:11:38;4.25;;;1.98;;
5416;SDS011;2731;50.754;12.990;2023-08-01T15:14:05;2.30;;;1.90;;
5416;SDS011;2731;50.754;12.990;2023-08-01T15:16:31;3.28;;;2.30;;
5416;SDS011;2731;50.754;12.990;2023-08-01T15:18:58;4.18;;;2.42;;
5416;SDS011;2731;50.754;12.990;2023-08-01T15:21:26;2.85;;;2.20;;
5416;SDS011;2731;50.754;12.990;2023-08-01T15:23:55;3.42;;;2.03;;
5416;SDS011;2731;50.754;12.990;2023-08-01T15:26:23;2.78;;;2.20;;
5416;SDS011;2731;50.754;12.990;2023-08-01T15:28:54;6.40;;;3.00;;
5416;SDS011;2731;50.754;12.990;2023-08-01T15:31:23;5.22;;;2.35;;
5416;SDS011;2731;50.754;12.990;2023-08-01T15:33:50;2.80;;;2.50;;
5416;SDS011;2731;50.754;12.990;2023-08-01T15:36:19;2.95;;;2.30;;
5416;SDS011;2731;50.754;12.990;2023-08-01T15:38:52;6.70;;;2.60;;